createdAt,value
2019-05-17T00:00:16.858Z,1002.31
2019-05-17T00:03:17.041Z,1002.22
2019-05-17T00:06:16.838Z,1002.18
2019-05-17T00:09:17.557Z,1002.13
2019-05-17T00:12:16.672Z,1002.14
2019-05-17T00:15:16.988Z,1002.13
2019-05-17T00:18:17.165Z,1002.09
2019-05-17T00:21:16.992Z,1002.02
2019-05-17T00:24:18.350Z,1001.99
2019-05-17T00:27:17.204Z,1001.90
2019-05-17T00:30:17.571Z,1001.94
2019-05-17T00:33:17.014Z,1001.85
2019-05-17T00:36:17.826Z,1001.84
2019-05-17T00:39:16.678Z,1001.84
2019-05-17T00:42:17.073Z,1001.85
2019-05-17T00:45:17.648Z,1001.81
2019-05-17T00:48:17.110Z,1001.74
2019-05-17T00:51:16.731Z,1001.68
2019-05-17T00:54:23.594Z,1001.67
2019-05-17T00:57:16.597Z,1001.66
2019-05-17T01:00:17.072Z,1001.66
2019-05-17T01:03:16.269Z,1001.60
2019-05-17T01:06:16.928Z,1001.56
2019-05-17T01:09:17.061Z,1001.51
2019-05-17T01:12:16.459Z,1001.56
2019-05-17T01:15:16.793Z,1001.50
2019-05-17T01:18:16.246Z,1001.38
2019-05-17T01:21:16.891Z,1001.39
2019-05-17T01:24:17.323Z,1001.37
2019-05-17T01:27:17.189Z,1001.39
2019-05-17T01:30:17.505Z,1001.32
2019-05-17T01:33:17.080Z,1001.32
2019-05-17T01:36:17.341Z,1001.31
2019-05-17T01:39:20.654Z,1001.34
2019-05-17T01:42:17.149Z,1001.27
2019-05-17T01:45:16.717Z,1001.29
2019-05-17T01:48:16.410Z,1001.27
2019-05-17T01:51:16.935Z,1001.25
2019-05-17T01:54:17.359Z,1001.23
2019-05-17T01:57:16.806Z,1001.22
2019-05-17T02:00:17.467Z,1001.23
2019-05-17T02:03:17.196Z,1001.19
2019-05-17T02:06:16.522Z,1001.14
2019-05-17T02:09:32.276Z,1001.20
2019-05-17T02:12:17.284Z,1001.15
2019-05-17T02:15:16.420Z,1001.12
2019-05-17T02:18:17.214Z,1001.10
2019-05-17T02:21:16.859Z,1001.11
2019-05-17T02:24:16.927Z,1001.07
2019-05-17T02:27:14.976Z,1001.11
2019-05-17T02:30:15.077Z,1001.07
2019-05-17T02:33:14.904Z,1001.10
2019-05-17T02:36:14.865Z,1001.04
2019-05-17T02:39:14.841Z,1000.99
2019-05-17T02:42:14.780Z,1000.97
2019-05-17T02:45:14.777Z,1000.94
2019-05-17T02:48:14.743Z,1000.89
2019-05-17T02:51:14.707Z,1000.95
2019-05-17T02:54:14.700Z,1000.88
2019-05-17T02:57:14.623Z,1000.91
2019-05-17T03:00:14.630Z,1000.91
2019-05-17T03:03:14.595Z,1000.85
2019-05-17T03:06:14.543Z,1000.93
2019-05-17T03:09:14.518Z,1000.93
2019-05-17T03:12:14.465Z,1000.91
2019-05-17T03:15:14.446Z,1000.91
2019-05-17T03:18:14.439Z,1000.90
2019-05-17T03:21:14.376Z,1000.88
2019-05-17T03:24:14.365Z,1000.88
2019-05-17T03:27:14.320Z,1000.81
2019-05-17T03:30:18.702Z,1000.82
2019-05-17T03:33:16.051Z,1000.75
2019-05-17T03:36:16.766Z,1000.76
2019-05-17T03:39:14.217Z,1000.77
2019-05-17T03:42:14.164Z,1000.75
2019-05-17T03:45:14.318Z,1000.71
2019-05-17T03:48:14.106Z,1000.69
2019-05-17T03:51:14.080Z,1000.69
2019-05-17T03:54:14.156Z,1000.70
2019-05-17T03:57:14.021Z,1000.68
2019-05-17T04:00:14.083Z,1000.69
2019-05-17T04:03:13.976Z,1000.65
2019-05-17T04:06:13.918Z,1000.58
2019-05-17T04:09:14.268Z,1000.61
2019-05-17T04:12:13.921Z,1000.61
2019-05-17T04:15:14.052Z,1000.59
2019-05-17T04:18:13.771Z,1000.58
2019-05-17T04:21:13.761Z,1000.58
2019-05-17T04:24:13.709Z,1000.50
2019-05-17T04:27:13.863Z,1000.48
2019-05-17T04:30:13.717Z,1000.61
2019-05-17T04:33:13.641Z,1000.57
2019-05-17T04:36:13.602Z,1000.57
2019-05-17T04:39:13.743Z,1000.55
2019-05-17T04:42:13.846Z,1000.53
2019-05-17T04:45:13.543Z,1000.57
2019-05-17T04:48:13.564Z,1000.57
2019-05-17T04:51:13.538Z,1000.52
2019-05-17T04:54:13.838Z,1000.52
2019-05-17T04:57:13.415Z,1000.54
2019-05-17T05:00:13.517Z,1000.51
2019-05-17T05:03:13.322Z,1000.45
2019-05-17T05:06:13.658Z,1000.44
2019-05-17T05:09:13.262Z,1000.34
2019-05-17T05:12:13.229Z,1000.36
2019-05-17T05:15:13.179Z,1000.37
2019-05-17T05:18:13.686Z,1000.37
2019-05-17T05:21:13.113Z,1000.43
2019-05-17T05:24:13.089Z,1000.37
2019-05-17T05:27:13.041Z,1000.40
2019-05-17T05:30:13.055Z,1000.37
2019-05-17T05:33:13.217Z,1000.39
2019-05-17T05:36:12.960Z,1000.34
2019-05-17T05:39:12.918Z,1000.34
2019-05-17T05:42:14.038Z,1000.34
2019-05-17T05:45:12.872Z,1000.35
2019-05-17T05:48:13.217Z,1000.38
2019-05-17T05:51:13.714Z,1000.38
2019-05-17T05:54:12.773Z,1000.26
2019-05-17T05:57:12.875Z,1000.36
2019-05-17T06:00:13.014Z,1000.27
2019-05-17T06:03:12.699Z,1000.37
2019-05-17T06:06:12.643Z,1000.36
2019-05-17T06:09:12.586Z,1000.41
2019-05-17T06:12:22.965Z,1000.32
2019-05-17T06:15:13.522Z,1000.34
2019-05-17T06:18:12.674Z,1000.35
2019-05-17T06:21:12.463Z,1000.31
2019-05-17T06:24:12.437Z,1000.33
2019-05-17T06:27:12.501Z,1000.32
2019-05-17T06:30:12.821Z,1000.31
2019-05-17T06:33:26.685Z,1000.31
2019-05-17T06:36:13.816Z,1000.30
2019-05-17T06:39:12.280Z,1000.27
2019-05-17T06:42:12.233Z,1000.34
2019-05-17T06:45:12.533Z,1000.34
2019-05-17T06:48:12.206Z,1000.36
2019-05-17T06:51:12.158Z,1000.34
2019-05-17T06:54:12.207Z,1000.34
2019-05-17T06:57:12.750Z,1000.33
2019-05-17T07:00:18.955Z,1000.26
2019-05-17T07:03:13.000Z,1000.19
2019-05-17T07:06:11.956Z,1000.15
2019-05-17T07:09:11.948Z,1000.15
2019-05-17T07:12:11.899Z,1000.17
2019-05-17T07:15:11.870Z,1000.13
2019-05-17T07:18:11.828Z,1000.10
2019-05-17T07:21:11.817Z,1000.13
2019-05-17T07:24:11.772Z,1000.11
2019-05-17T07:27:11.739Z,1000.09
2019-05-17T07:30:11.696Z,1000.05
2019-05-17T07:33:11.691Z,1000.12
2019-05-17T07:36:11.667Z,1000.05
2019-05-17T07:39:11.601Z,1000.01
2019-05-17T07:42:11.600Z,999.97
2019-05-17T07:45:11.539Z,999.95
2019-05-17T07:48:11.516Z,999.92
2019-05-17T07:51:11.486Z,999.93
2019-05-17T07:54:11.436Z,999.81
2019-05-17T07:57:11.436Z,999.84
2019-05-17T08:00:11.385Z,999.92
2019-05-17T08:03:13.457Z,999.86
2019-05-17T08:06:11.340Z,999.72
2019-05-17T08:09:13.749Z,999.78
2019-05-17T08:12:11.288Z,999.71
2019-05-17T08:15:11.327Z,999.68
2019-05-17T08:18:11.303Z,999.75
2019-05-17T08:21:11.168Z,999.72
2019-05-17T08:24:11.111Z,999.66
2019-05-17T08:27:11.116Z,999.69
2019-05-17T08:30:11.221Z,999.70
2019-05-17T08:33:11.336Z,999.70
2019-05-17T08:36:11.005Z,999.69
2019-05-17T08:39:10.960Z,999.72
2019-05-17T08:42:10.941Z,999.71
2019-05-17T08:45:10.897Z,999.67
2019-05-17T08:48:10.883Z,999.71
2019-05-17T08:51:25.686Z,999.72
2019-05-17T08:54:10.814Z,999.71
2019-05-17T08:57:10.787Z,999.68
2019-05-17T09:00:11.022Z,999.60
2019-05-17T09:03:11.018Z,999.61
2019-05-17T09:06:12.489Z,999.59
2019-05-17T09:09:10.636Z,999.64
2019-05-17T09:12:11.155Z,999.61
2019-05-17T09:15:10.558Z,999.61
2019-05-17T09:18:10.581Z,999.61
2019-05-17T09:21:10.496Z,999.63
2019-05-17T09:24:10.575Z,999.60
2019-05-17T09:27:10.434Z,999.61
2019-05-17T09:30:10.439Z,999.55
2019-05-17T09:33:11.235Z,999.53
2019-05-17T09:36:10.357Z,999.58
2019-05-17T09:39:10.341Z,999.48
2019-05-17T09:42:10.492Z,999.43
2019-05-17T09:45:10.251Z,999.43
2019-05-17T09:48:10.568Z,999.40
2019-05-17T09:51:10.581Z,999.34
2019-05-17T09:54:10.381Z,999.33
2019-05-17T09:57:10.140Z,999.30
2019-05-17T10:00:10.244Z,999.25
2019-05-17T10:03:10.126Z,999.28
2019-05-17T10:06:10.030Z,999.26
2019-05-17T10:09:10.001Z,999.30
2019-05-17T10:12:09.955Z,999.34
2019-05-17T10:15:10.274Z,999.23
2019-05-17T10:18:11.143Z,999.24
2019-05-17T10:21:10.457Z,999.30
2019-05-17T10:24:09.859Z,999.24
2019-05-17T10:27:10.923Z,999.25
2019-05-17T10:30:10.460Z,999.21
2019-05-17T10:33:10.166Z,999.13
2019-05-17T10:36:09.686Z,999.05
2019-05-17T10:39:10.000Z,999.14
2019-05-17T10:42:10.041Z,999.08
2019-05-17T10:45:10.978Z,999.10
2019-05-17T10:48:10.254Z,999.08
2019-05-17T10:51:10.094Z,999.12
2019-05-17T10:54:09.736Z,999.01
2019-05-17T10:57:10.403Z,999.04
2019-05-17T11:00:10.123Z,999.07
2019-05-17T11:03:09.972Z,999.13
2019-05-17T11:06:10.914Z,999.05
2019-05-17T11:09:10.235Z,999.06
2019-05-17T11:12:09.299Z,999.05
2019-05-17T11:15:11.649Z,999.08
2019-05-17T11:18:09.228Z,999.06
2019-05-17T11:21:09.244Z,999.09
2019-05-17T11:24:09.182Z,999.04
2019-05-17T11:27:09.131Z,999.07
2019-05-17T11:30:09.122Z,998.99
2019-05-17T11:33:09.086Z,999.03
2019-05-17T11:36:09.045Z,999.02
2019-05-17T11:39:09.008Z,998.92
2019-05-17T11:42:16.029Z,998.99
2019-05-17T11:45:08.942Z,998.99
2019-05-17T11:48:08.944Z,998.98
2019-05-17T11:51:08.910Z,998.98
2019-05-17T11:54:08.892Z,999.06
2019-05-17T11:57:12.209Z,999.05
2019-05-17T12:00:08.777Z,999.02
2019-05-17T12:03:08.759Z,998.99
2019-05-17T12:06:08.715Z,999.11
2019-05-17T12:09:08.715Z,998.93
2019-05-17T12:12:08.704Z,998.93
2019-05-17T12:15:08.625Z,998.92
2019-05-17T12:18:08.598Z,998.88
2019-05-17T12:21:08.553Z,998.91
2019-05-17T12:24:08.570Z,998.93
2019-05-17T12:27:08.493Z,998.96
2019-05-17T12:30:08.487Z,998.96
2019-05-17T12:33:08.449Z,998.84
2019-05-17T12:36:08.402Z,998.92
2019-05-17T12:39:08.449Z,999.07
2019-05-17T12:42:08.491Z,998.91
2019-05-17T12:45:08.327Z,998.85
2019-05-17T12:48:08.303Z,999.10
2019-05-17T12:51:08.250Z,998.88
2019-05-17T12:54:08.231Z,998.83
2019-05-17T12:57:08.179Z,998.85
2019-05-17T13:00:15.206Z,998.81
2019-05-17T13:03:08.113Z,998.87
2019-05-17T13:06:08.092Z,998.85
2019-05-17T13:09:08.067Z,998.67
2019-05-17T13:12:15.580Z,998.67
2019-05-17T13:15:07.983Z,998.77
2019-05-17T13:18:07.974Z,998.82
2019-05-17T13:21:07.934Z,998.92
2019-05-17T13:24:07.889Z,998.73
2019-05-17T13:27:15.414Z,998.74
2019-05-17T13:30:07.824Z,998.78
2019-05-17T13:33:07.812Z,998.88
2019-05-17T13:36:07.781Z,998.80
2019-05-17T13:39:14.765Z,998.70
2019-05-17T13:42:07.723Z,998.83
2019-05-17T13:45:07.693Z,998.75
2019-05-17T13:48:14.723Z,998.67
2019-05-17T13:51:07.602Z,998.67
2019-05-17T13:54:07.586Z,998.70
2019-05-17T13:57:14.590Z,998.59
2019-05-17T14:00:07.529Z,998.63
2019-05-17T14:03:07.499Z,998.60
2019-05-17T14:06:07.444Z,998.64
2019-05-17T14:09:07.447Z,998.64
2019-05-17T14:12:07.382Z,998.66
2019-05-17T14:15:07.375Z,998.57
2019-05-17T14:18:07.313Z,998.52
2019-05-17T14:21:07.329Z,998.54
2019-05-17T14:24:07.394Z,998.55
2019-05-17T14:27:07.224Z,998.56
2019-05-17T14:30:07.281Z,998.51
2019-05-17T14:33:07.193Z,998.45
2019-05-17T14:36:07.124Z,998.54
2019-05-17T14:39:07.127Z,998.47
2019-05-17T14:42:07.106Z,998.45
2019-05-17T14:45:07.050Z,998.48
2019-05-17T14:48:07.006Z,998.47
2019-05-17T14:51:06.991Z,998.47
2019-05-17T14:54:06.958Z,998.44
2019-05-17T14:57:06.937Z,998.39
2019-05-17T15:00:06.874Z,998.39
2019-05-17T15:03:07.665Z,998.34
2019-05-17T15:06:06.838Z,998.41
2019-05-17T15:09:06.778Z,998.29
2019-05-17T15:12:06.769Z,998.27
2019-05-17T15:15:06.721Z,998.23
2019-05-17T15:18:09.409Z,998.17
2019-05-17T15:21:06.666Z,998.16
2019-05-17T15:24:06.621Z,998.15
2019-05-17T15:27:06.616Z,998.15
2019-05-17T15:30:06.576Z,998.20
2019-05-17T15:33:06.534Z,998.14
2019-05-17T15:36:06.506Z,998.15
2019-05-17T15:39:06.511Z,998.12
2019-05-17T15:42:06.431Z,998.17
2019-05-17T15:45:06.405Z,998.16
2019-05-17T15:48:07.105Z,998.12
2019-05-17T15:51:06.341Z,998.04
2019-05-17T15:54:06.311Z,998.04
2019-05-17T15:57:06.305Z,997.98
2019-05-17T16:00:06.248Z,998.01
2019-05-17T16:03:06.226Z,997.95
2019-05-17T16:06:06.193Z,997.83
2019-05-17T16:09:06.185Z,997.97
2019-05-17T16:12:06.104Z,997.92
2019-05-17T16:15:06.090Z,997.84
2019-05-17T16:18:06.086Z,997.93
2019-05-17T16:21:06.099Z,997.89
2019-05-17T16:24:05.984Z,997.88
2019-05-17T16:27:05.975Z,997.82
2019-05-17T16:30:05.935Z,997.82
2019-05-17T16:33:05.904Z,997.74
2019-05-17T16:36:05.866Z,997.79
2019-05-17T16:39:08.333Z,997.78
2019-05-17T16:42:05.815Z,997.75
2019-05-17T16:45:05.770Z,997.76
2019-05-17T16:48:05.723Z,997.70
2019-05-17T16:51:05.710Z,997.68
2019-05-17T16:54:05.678Z,997.73
2019-05-17T16:57:05.642Z,997.73
2019-05-17T17:00:05.596Z,997.73
2019-05-17T17:03:05.595Z,997.74
2019-05-17T17:06:05.580Z,997.68
2019-05-17T17:09:05.535Z,997.72
2019-05-17T17:12:05.461Z,997.59
2019-05-17T17:15:05.460Z,997.63
2019-05-17T17:18:05.400Z,997.62
2019-05-17T17:21:05.430Z,997.66
2019-05-17T17:24:05.346Z,997.63
2019-05-17T17:27:05.318Z,997.68
2019-05-17T17:30:05.279Z,997.65
2019-05-17T17:33:05.260Z,997.69
2019-05-17T17:36:05.212Z,997.62
2019-05-17T17:39:05.187Z,997.60
2019-05-17T17:42:05.150Z,997.60
2019-05-17T17:45:05.141Z,997.66
2019-05-17T17:48:05.081Z,997.68
2019-05-17T17:51:05.069Z,997.64
2019-05-17T17:54:05.037Z,997.59
2019-05-17T17:57:04.982Z,997.61
2019-05-17T18:00:04.973Z,997.61
2019-05-17T18:03:04.938Z,997.60
2019-05-17T18:06:04.911Z,997.55
2019-05-17T18:09:04.853Z,997.60
2019-05-17T18:12:04.855Z,997.66
2019-05-17T18:15:06.483Z,997.67
2019-05-17T18:18:04.768Z,997.60
2019-05-17T18:21:04.751Z,997.52
2019-05-17T18:24:04.706Z,997.57
2019-05-17T18:27:04.696Z,997.58
2019-05-17T18:30:04.624Z,997.58
2019-05-17T18:33:04.611Z,997.61
2019-05-17T18:36:04.559Z,997.59
2019-05-17T18:39:04.546Z,997.55
2019-05-17T18:42:04.505Z,997.61
2019-05-17T18:45:04.490Z,997.64
2019-05-17T18:48:04.446Z,997.67
2019-05-17T18:51:04.406Z,997.72
2019-05-17T18:54:04.374Z,997.70
2019-05-17T18:57:04.343Z,997.65
2019-05-17T19:00:04.325Z,997.65
2019-05-17T19:03:04.279Z,997.69
2019-05-17T19:06:04.259Z,997.69
2019-05-17T19:09:04.205Z,997.67
2019-05-17T19:12:04.189Z,997.70
2019-05-17T19:15:04.152Z,997.66
2019-05-17T19:18:04.116Z,997.67
2019-05-17T19:21:04.085Z,997.63
2019-05-17T19:24:04.053Z,997.68
2019-05-17T19:27:04.019Z,997.68
2019-05-17T19:30:03.996Z,997.74
2019-05-17T19:33:03.947Z,997.75
2019-05-17T19:36:03.934Z,997.74
2019-05-17T19:39:03.875Z,997.74
2019-05-17T19:42:03.856Z,997.76
2019-05-17T19:45:03.840Z,997.78
2019-05-17T19:48:03.801Z,997.79
2019-05-17T19:51:03.757Z,997.81
2019-05-17T19:54:03.715Z,997.82
2019-05-17T19:57:03.705Z,997.85
2019-05-17T20:00:03.668Z,997.83
2019-05-17T20:03:03.653Z,997.81
2019-05-17T20:06:03.768Z,997.85
2019-05-17T20:09:10.619Z,997.81
2019-05-17T20:12:03.533Z,997.76
2019-05-17T20:15:16.643Z,997.83
2019-05-17T20:18:04.486Z,997.75
2019-05-17T20:21:03.439Z,997.72
2019-05-17T20:24:03.418Z,997.76
2019-05-17T20:27:03.365Z,997.74
2019-05-17T20:30:03.424Z,997.70
2019-05-17T20:33:03.323Z,997.75
2019-05-17T20:36:03.288Z,997.70
2019-05-17T20:39:03.228Z,997.70
2019-05-17T20:42:03.207Z,997.64
2019-05-17T20:45:03.181Z,997.63
2019-05-17T20:48:03.146Z,997.67
2019-05-17T20:51:03.092Z,997.67
2019-05-17T20:54:03.074Z,997.66
2019-05-17T20:57:03.032Z,997.60
2019-05-17T21:00:03.013Z,997.62
2019-05-17T21:03:02.974Z,997.65
2019-05-17T21:06:02.947Z,997.60
2019-05-17T21:09:02.896Z,997.58
2019-05-17T21:12:02.876Z,997.54
2019-05-17T21:15:02.878Z,997.57
2019-05-17T21:18:02.817Z,997.57
2019-05-17T21:21:02.780Z,997.53
2019-05-17T21:24:02.747Z,997.52
2019-05-17T21:27:02.719Z,997.53
2019-05-17T21:30:02.671Z,997.53
2019-05-17T21:33:02.708Z,997.50
2019-05-17T21:36:02.602Z,997.53
2019-05-17T21:39:02.590Z,997.54
2019-05-17T21:42:02.550Z,997.48
2019-05-17T21:45:02.522Z,997.64
2019-05-17T21:48:02.484Z,997.56
2019-05-17T21:51:02.440Z,997.50
2019-05-17T21:54:02.415Z,997.51
2019-05-17T21:57:02.372Z,997.50
2019-05-17T22:00:03.222Z,997.47
2019-05-17T22:03:02.323Z,997.47
2019-05-17T22:06:02.299Z,997.49
2019-05-17T22:09:02.244Z,997.47
2019-05-17T22:12:02.257Z,997.48
2019-05-17T22:15:02.211Z,997.49
2019-05-17T22:18:02.145Z,997.47
2019-05-17T22:21:02.135Z,997.40
2019-05-17T22:24:02.109Z,997.41
2019-05-17T22:27:02.062Z,997.36
2019-05-17T22:30:02.043Z,997.30
2019-05-17T22:33:01.982Z,997.29
2019-05-17T22:36:01.974Z,997.27
2019-05-17T22:39:01.913Z,997.21
2019-05-17T22:42:01.897Z,997.24
2019-05-17T22:45:01.850Z,997.22
2019-05-17T22:48:01.839Z,997.21
2019-05-17T22:51:01.793Z,997.15
2019-05-17T22:54:01.803Z,997.08
2019-05-17T22:57:01.730Z,997.14
2019-05-17T23:00:01.681Z,997.17
2019-05-17T23:03:01.672Z,997.15
2019-05-17T23:06:01.633Z,997.17
2019-05-17T23:09:01.621Z,997.03
2019-05-17T23:12:01.550Z,997.14
2019-05-17T23:15:01.546Z,997.05
2019-05-17T23:18:01.483Z,997.07
2019-05-17T23:21:01.501Z,997.09
2019-05-17T23:24:01.414Z,997.11
2019-05-17T23:27:01.422Z,997.08
2019-05-17T23:30:01.362Z,997.06
2019-05-17T23:33:01.367Z,997.04
2019-05-17T23:36:01.316Z,997.01
2019-05-17T23:39:01.271Z,997.03
2019-05-17T23:42:01.241Z,997.00
2019-05-17T23:45:01.206Z,997.04
2019-05-17T23:48:01.150Z,996.99
2019-05-17T23:51:01.150Z,996.97
2019-05-17T23:54:01.081Z,997.01
2019-05-17T23:57:01.072Z,997.03
